createdAt,value
2023-09-27T00:00:00.437Z,6.05
2023-09-27T00:02:32.083Z,5.50
2023-09-27T00:05:07.986Z,5.72
2023-09-27T00:07:41.476Z,6.65
2023-09-27T00:10:13.734Z,5.78
2023-09-27T00:12:49.346Z,6.95
2023-09-27T00:15:21.047Z,5.82
2023-09-27T00:17:52.715Z,5.15
2023-09-27T00:20:25.748Z,5.85
2023-09-27T00:22:57.426Z,5.70
2023-09-27T00:25:29.974Z,5.53
2023-09-27T00:28:01.584Z,6.43
2023-09-27T00:30:33.156Z,6.47
2023-09-27T00:33:05.860Z,5.70
2023-09-27T00:35:37.547Z,5.93
2023-09-27T00:38:09.227Z,6.10
2023-09-27T00:40:48.572Z,7.35
2023-09-27T00:43:26.961Z,6.53
2023-09-27T00:46:02.505Z,5.68
2023-09-27T00:48:37.065Z,5.78
2023-09-27T00:51:08.647Z,5.53
2023-09-27T00:53:42.419Z,6.07
2023-09-27T00:56:14.433Z,6.15
2023-09-27T00:58:46.157Z,6.85
2023-09-27T01:01:19.033Z,6.50
2023-09-27T01:03:51.460Z,6.50
2023-09-27T01:06:23.802Z,7.20
2023-09-27T01:08:55.435Z,6.55
2023-09-27T01:11:28.451Z,6.72
2023-09-27T01:14:00.541Z,6.38
2023-09-27T01:16:33.550Z,6.80
2023-09-27T01:19:05.343Z,6.97
2023-09-27T01:21:36.906Z,6.30
2023-09-27T01:24:10.734Z,7.32
2023-09-27T01:26:42.355Z,7.10
2023-09-27T01:29:14.165Z,7.20
2023-09-27T01:31:45.770Z,7.82
2023-09-27T01:34:17.516Z,7.07
2023-09-27T01:36:49.527Z,6.82
2023-09-27T01:39:21.110Z,7.90
2023-09-27T01:41:52.946Z,7.25
2023-09-27T01:44:24.601Z,7.93
2023-09-27T01:46:56.158Z,7.63
2023-09-27T01:49:27.689Z,7.18
2023-09-27T01:51:59.280Z,6.80
2023-09-27T01:54:30.777Z,6.53
2023-09-27T01:57:02.326Z,7.45
2023-09-27T01:59:33.877Z,8.05
2023-09-27T02:02:05.449Z,7.95
2023-09-27T02:04:37.024Z,7.57
2023-09-27T02:07:09.003Z,6.82
2023-09-27T02:09:40.517Z,8.15
2023-09-27T02:12:12.059Z,8.02
2023-09-27T02:14:43.620Z,8.25
2023-09-27T02:17:15.204Z,8.23
2023-09-27T02:19:46.858Z,8.90
2023-09-27T02:22:19.509Z,8.38
2023-09-27T02:24:51.068Z,11.48
2023-09-27T02:27:22.655Z,8.40
2023-09-27T02:29:54.193Z,8.60
2023-09-27T02:32:25.734Z,9.88
2023-09-27T02:34:57.328Z,9.57
2023-09-27T02:37:29.077Z,9.77
2023-09-27T02:40:00.559Z,8.38
2023-09-27T02:42:32.111Z,10.52
2023-09-27T02:45:04.224Z,8.68
2023-09-27T02:47:36.747Z,9.95
2023-09-27T02:50:12.218Z,9.18
2023-09-27T02:52:45.039Z,8.80
2023-09-27T02:55:17.087Z,8.63
2023-09-27T02:57:54.334Z,8.57
2023-09-27T03:00:27.798Z,9.90
2023-09-27T03:02:59.586Z,9.10
2023-09-27T03:05:36.382Z,10.60
2023-09-27T03:08:08.389Z,11.45
2023-09-27T03:10:40.084Z,10.13
2023-09-27T03:13:12.715Z,9.32
2023-09-27T03:15:45.268Z,10.07
2023-09-27T03:18:17.078Z,10.38
2023-09-27T03:20:48.661Z,11.25
2023-09-27T03:23:20.241Z,14.48
2023-09-27T03:25:52.020Z,13.20
2023-09-27T03:28:24.384Z,12.68
2023-09-27T03:30:55.897Z,12.77
2023-09-27T03:33:28.520Z,12.82
2023-09-27T03:36:04.172Z,14.32
2023-09-27T03:38:36.178Z,13.88
2023-09-27T03:41:09.565Z,12.05
2023-09-27T03:43:41.139Z,13.73
2023-09-27T03:46:27.978Z,13.45
2023-09-27T03:48:59.533Z,14.30
2023-09-27T03:51:31.135Z,14.57
2023-09-27T03:54:02.652Z,14.00
2023-09-27T03:56:34.241Z,14.10
2023-09-27T03:59:05.909Z,13.40
2023-09-27T04:01:38.286Z,13.25
2023-09-27T04:04:10.504Z,14.23
2023-09-27T04:06:42.282Z,14.45
2023-09-27T04:09:13.838Z,15.48
2023-09-27T04:11:45.561Z,14.88
2023-09-27T04:14:17.221Z,14.30
2023-09-27T04:16:48.733Z,12.82
2023-09-27T04:19:20.297Z,14.50
2023-09-27T04:21:51.812Z,13.00
2023-09-27T04:24:24.130Z,14.43
2023-09-27T04:26:55.667Z,16.05
2023-09-27T04:29:27.627Z,14.43
2023-09-27T04:31:59.326Z,15.02
2023-09-27T04:34:30.959Z,14.27
2023-09-27T04:37:02.445Z,14.40
2023-09-27T04:39:33.952Z,15.77
2023-09-27T04:42:05.464Z,16.10
2023-09-27T04:44:37.090Z,16.83
2023-09-27T04:47:08.693Z,14.95
2023-09-27T04:49:40.242Z,16.02
2023-09-27T04:52:11.727Z,16.17
2023-09-27T04:54:43.294Z,17.40
2023-09-27T04:57:14.760Z,17.27
2023-09-27T04:59:49.652Z,17.67
2023-09-27T05:02:21.753Z,16.13
2023-09-27T05:04:53.324Z,15.40
2023-09-27T05:07:25.787Z,15.70
2023-09-27T05:09:57.354Z,16.80
2023-09-27T05:12:28.875Z,17.30
2023-09-27T05:15:00.410Z,16.50
2023-09-27T05:17:31.998Z,15.43
2023-09-27T05:20:12.238Z,14.77
2023-09-27T05:22:44.953Z,15.98
2023-09-27T05:25:16.502Z,15.35
2023-09-27T05:27:48.002Z,19.45
2023-09-27T05:30:22.508Z,17.00
2023-09-27T05:32:54.572Z,18.05
2023-09-27T05:35:26.166Z,17.55
2023-09-27T05:38:00.029Z,17.48
2023-09-27T05:40:32.487Z,17.80
2023-09-27T05:43:04.363Z,18.38
2023-09-27T05:45:36.066Z,18.85
2023-09-27T05:48:07.682Z,19.80
2023-09-27T05:50:41.743Z,20.27
2023-09-27T05:53:13.655Z,22.38
2023-09-27T05:55:45.417Z,20.85
2023-09-27T05:58:17.029Z,19.42
2023-09-27T06:00:49.228Z,19.67
2023-09-27T06:03:21.046Z,20.70
2023-09-27T06:05:52.657Z,16.42
2023-09-27T06:08:24.269Z,16.10
2023-09-27T06:10:56.802Z,15.52
2023-09-27T06:13:29.451Z,16.75
2023-09-27T06:16:02.004Z,15.70
2023-09-27T06:18:33.696Z,16.08
2023-09-27T06:21:08.280Z,15.57
2023-09-27T06:23:41.087Z,15.10
2023-09-27T06:26:13.719Z,15.32
2023-09-27T06:28:45.406Z,17.55
2023-09-27T06:31:17.055Z,18.83
2023-09-27T06:33:49.004Z,16.35
2023-09-27T06:36:22.623Z,16.42
2023-09-27T06:38:54.447Z,18.17
2023-09-27T06:41:26.206Z,19.73
2023-09-27T06:43:57.793Z,17.38
2023-09-27T06:46:35.625Z,16.85
2023-09-27T06:49:20.639Z,16.30
2023-09-27T06:51:52.190Z,16.52
2023-09-27T06:54:23.935Z,16.30
2023-09-27T06:56:55.486Z,16.05
2023-09-27T06:59:27.709Z,16.15
2023-09-27T07:01:59.335Z,16.67
2023-09-27T07:04:30.895Z,17.33
2023-09-27T07:07:03.566Z,15.77
2023-09-27T07:09:35.378Z,16.63
2023-09-27T07:12:06.964Z,18.20
2023-09-27T07:14:38.569Z,21.25
2023-09-27T07:17:10.152Z,17.35
2023-09-27T07:19:41.892Z,15.93
2023-09-27T07:22:16.776Z,14.90
2023-09-27T07:24:49.994Z,16.35
2023-09-27T07:27:21.479Z,16.20
2023-09-27T07:29:53.049Z,14.68
2023-09-27T07:32:24.599Z,15.85
2023-09-27T07:34:59.215Z,14.68
2023-09-27T07:37:33.577Z,14.55
2023-09-27T07:40:10.870Z,14.60
2023-09-27T07:42:44.770Z,14.07
2023-09-27T07:45:23.587Z,13.52
2023-09-27T07:47:55.869Z,13.38
2023-09-27T07:50:34.740Z,14.05
2023-09-27T07:53:07.601Z,13.15
2023-09-27T07:55:51.778Z,13.68
2023-09-27T07:58:23.828Z,12.82
2023-09-27T08:00:55.421Z,12.88
2023-09-27T08:03:28.545Z,13.85
2023-09-27T08:06:00.278Z,12.23
2023-09-27T08:08:31.899Z,13.48
2023-09-27T08:11:03.788Z,12.45
2023-09-27T08:13:35.672Z,11.80
2023-09-27T08:16:09.049Z,12.45
2023-09-27T08:18:41.596Z,12.52
2023-09-27T08:21:13.314Z,11.55
2023-09-27T08:23:44.932Z,10.95
2023-09-27T08:26:16.646Z,11.77
2023-09-27T08:28:48.214Z,11.90
2023-09-27T08:31:19.857Z,11.73
2023-09-27T08:33:51.384Z,11.32
2023-09-27T08:36:22.924Z,12.60
2023-09-27T08:38:54.621Z,12.18
2023-09-27T08:41:26.455Z,11.88
2023-09-27T08:43:58.706Z,11.40
2023-09-27T08:46:34.871Z,11.68
2023-09-27T08:49:09.730Z,14.07
2023-09-27T08:51:43.401Z,12.40
2023-09-27T08:54:20.137Z,10.77
2023-09-27T08:56:52.710Z,11.30
2023-09-27T08:59:24.387Z,12.27
2023-09-27T09:01:58.570Z,11.38
2023-09-27T09:04:32.239Z,13.77
2023-09-27T09:07:04.527Z,11.40
2023-09-27T09:09:36.318Z,15.82
2023-09-27T09:12:10.968Z,13.93
2023-09-27T09:14:45.793Z,14.18
2023-09-27T09:17:26.042Z,11.65
2023-09-27T09:20:22.518Z,11.02
2023-09-27T09:25:30.633Z,14.32
2023-09-27T09:28:10.251Z,11.93
2023-09-27T09:30:41.977Z,13.43
2023-09-27T09:33:18.612Z,13.60
2023-09-27T09:38:31.924Z,14.13
2023-09-27T09:41:03.883Z,13.60
2023-09-27T09:43:37.855Z,14.15
2023-09-27T09:46:11.914Z,14.30
2023-09-27T09:48:45.511Z,13.68
2023-09-27T09:51:19.902Z,14.85
2023-09-27T09:53:54.570Z,15.40
2023-09-27T09:56:33.525Z,14.48
2023-09-27T09:59:10.638Z,14.68
2023-09-27T10:01:43.670Z,13.40
2023-09-27T10:04:16.887Z,15.30
2023-09-27T10:06:49.732Z,13.48
2023-09-27T10:09:29.516Z,15.23
2023-09-27T10:12:02.402Z,15.60
2023-09-27T10:14:34.548Z,13.13
2023-09-27T10:17:06.174Z,12.63
2023-09-27T10:19:37.809Z,10.85
2023-09-27T10:22:15.259Z,11.85
2023-09-27T10:24:46.976Z,11.20
2023-09-27T10:27:20.053Z,11.55
2023-09-27T10:29:59.310Z,12.65
2023-09-27T10:32:32.228Z,10.80
2023-09-27T10:35:18.447Z,8.88
2023-09-27T10:38:00.725Z,9.70
2023-09-27T10:40:43.523Z,8.13
2023-09-27T10:43:36.415Z,9.55
2023-09-27T10:46:08.556Z,9.73
2023-09-27T10:48:43.723Z,8.73
2023-09-27T10:51:15.385Z,8.73
2023-09-27T10:53:47.022Z,10.43
2023-09-27T10:56:19.113Z,9.32
2023-09-27T10:58:50.990Z,10.20
2023-09-27T11:01:24.658Z,10.73
2023-09-27T11:04:05.219Z,9.40
2023-09-27T11:06:36.957Z,10.38
2023-09-27T11:09:10.023Z,9.30
2023-09-27T11:11:45.229Z,10.27
2023-09-27T11:14:33.009Z,9.50
2023-09-27T11:17:17.928Z,11.30
2023-09-27T11:19:53.513Z,11.35
2023-09-27T11:22:26.397Z,11.55
2023-09-27T11:24:57.947Z,10.90
2023-09-27T11:27:29.540Z,10.90
2023-09-27T11:30:01.102Z,11.32
2023-09-27T11:32:50.961Z,10.50
2023-09-27T11:35:22.705Z,11.07
2023-09-27T11:38:14.487Z,9.07
2023-09-27T11:40:47.647Z,9.32
2023-09-27T11:43:19.641Z,9.02
2023-09-27T11:45:51.544Z,9.20
2023-09-27T11:48:41.089Z,8.40
2023-09-27T11:51:13.020Z,9.55
2023-09-27T11:53:46.767Z,9.25
2023-09-27T11:56:18.415Z,8.82
2023-09-27T11:58:49.997Z,8.70
2023-09-27T12:01:21.542Z,7.78
2023-09-27T12:03:53.635Z,6.55
2023-09-27T12:06:26.995Z,7.75
2023-09-27T12:09:01.924Z,7.15
2023-09-27T12:11:33.924Z,5.40
2023-09-27T12:14:05.839Z,6.32
2023-09-27T12:16:37.488Z,7.50
2023-09-27T12:19:09.280Z,6.20
2023-09-27T12:21:40.771Z,6.47
2023-09-27T12:24:12.406Z,6.22
2023-09-27T12:26:44.015Z,5.15
2023-09-27T12:29:15.661Z,6.03
2023-09-27T12:31:47.212Z,5.95
2023-09-27T12:34:20.259Z,5.53
2023-09-27T12:36:52.032Z,6.05
2023-09-27T12:39:23.590Z,6.32
2023-09-27T12:41:55.139Z,5.10
2023-09-27T12:44:27.299Z,5.10
2023-09-27T12:46:58.887Z,4.63
2023-09-27T12:49:30.542Z,3.80
2023-09-27T12:52:02.248Z,4.70
2023-09-27T12:54:33.820Z,4.00
2023-09-27T12:57:05.378Z,4.00
2023-09-27T12:59:37.005Z,3.88
2023-09-27T13:02:08.772Z,4.30
2023-09-27T13:04:40.361Z,3.83
2023-09-27T13:07:12.192Z,4.97
2023-09-27T13:09:43.823Z,4.93
2023-09-27T13:12:15.765Z,4.82
2023-09-27T13:14:47.466Z,4.00
2023-09-27T13:17:19.116Z,4.45
2023-09-27T13:19:54.025Z,4.82
2023-09-27T13:22:25.609Z,5.88
2023-09-27T13:24:57.087Z,4.45
2023-09-27T13:27:28.874Z,4.65
2023-09-27T13:30:00.379Z,4.07
2023-09-27T13:32:32.104Z,4.60
2023-09-27T13:35:03.990Z,5.22
2023-09-27T13:37:35.610Z,4.80
2023-09-27T13:40:13.967Z,6.18
2023-09-27T13:42:45.801Z,5.32
2023-09-27T13:45:17.415Z,4.68
2023-09-27T13:47:49.139Z,5.20
2023-09-27T13:50:20.877Z,5.57
2023-09-27T13:52:52.415Z,4.75
2023-09-27T13:55:24.126Z,4.88
2023-09-27T13:57:57.141Z,4.72
2023-09-27T14:00:29.329Z,4.43
2023-09-27T14:03:01.596Z,4.63
2023-09-27T14:05:33.622Z,4.70
2023-09-27T14:08:05.613Z,4.78
2023-09-27T14:10:37.139Z,4.93
2023-09-27T14:13:08.752Z,4.50
2023-09-27T14:15:41.545Z,4.70
2023-09-27T14:18:13.389Z,4.10
2023-09-27T14:20:45.414Z,4.90
2023-09-27T14:23:17.055Z,4.90
2023-09-27T14:25:48.643Z,4.97
2023-09-27T14:28:20.311Z,4.90
2023-09-27T14:30:52.076Z,4.68
2023-09-27T14:33:24.726Z,4.38
2023-09-27T14:35:57.625Z,4.68
2023-09-27T14:38:30.717Z,4.65
2023-09-27T14:41:10.113Z,4.28
2023-09-27T14:43:41.810Z,4.65
2023-09-27T14:46:13.819Z,4.50
2023-09-27T14:48:45.533Z,4.22
2023-09-27T14:51:17.762Z,4.05
2023-09-27T14:53:49.336Z,3.70
2023-09-27T14:56:20.912Z,4.20
2023-09-27T14:58:52.507Z,3.95
2023-09-27T15:01:24.264Z,4.35
2023-09-27T15:03:56.390Z,4.45
2023-09-27T15:06:28.192Z,4.28
2023-09-27T15:09:00.477Z,4.20
2023-09-27T15:11:32.029Z,4.88
2023-09-27T15:14:03.826Z,4.90
2023-09-27T15:16:35.590Z,4.88
2023-09-27T15:19:07.486Z,5.03
2023-09-27T15:21:39.083Z,5.55
2023-09-27T15:24:11.273Z,6.22
2023-09-27T15:26:43.017Z,5.38
2023-09-27T15:29:14.782Z,4.95
2023-09-27T15:31:46.949Z,6.25
2023-09-27T15:34:18.547Z,6.28
2023-09-27T15:36:52.467Z,6.45
2023-09-27T15:39:25.393Z,5.88
2023-09-27T15:41:57.491Z,5.32
2023-09-27T15:44:29.515Z,5.65
2023-09-27T15:47:01.311Z,6.30
2023-09-27T15:49:36.120Z,6.13
2023-09-27T15:52:07.790Z,6.68
2023-09-27T15:54:42.777Z,6.55
2023-09-27T15:57:14.476Z,7.43
2023-09-27T15:59:46.392Z,7.25
2023-09-27T16:02:18.004Z,6.85
2023-09-27T16:04:52.730Z,6.35
2023-09-27T16:07:25.620Z,6.25
2023-09-27T16:09:57.760Z,6.90
2023-09-27T16:12:29.335Z,7.57
2023-09-27T16:15:01.166Z,6.88
2023-09-27T16:17:32.745Z,6.72
2023-09-27T16:20:04.733Z,7.70
2023-09-27T16:22:36.509Z,7.60
2023-09-27T16:25:08.954Z,7.15
2023-09-27T16:27:41.049Z,6.70
2023-09-27T16:30:13.933Z,6.32
2023-09-27T16:32:47.351Z,6.70
2023-09-27T16:35:19.095Z,6.63
2023-09-27T16:37:51.143Z,6.60
2023-09-27T16:40:22.974Z,6.60
2023-09-27T16:42:54.596Z,6.78
2023-09-27T16:45:27.961Z,6.60
2023-09-27T16:48:00.584Z,6.47
2023-09-27T16:50:32.233Z,6.70
2023-09-27T16:53:04.282Z,6.63
2023-09-27T16:55:36.683Z,6.88
2023-09-27T16:58:08.306Z,6.97
2023-09-27T17:00:43.197Z,6.43
2023-09-27T17:03:17.940Z,6.75
2023-09-27T17:05:53.214Z,6.43
2023-09-27T17:08:25.130Z,6.72
2023-09-27T17:10:56.757Z,7.47
2023-09-27T17:13:28.411Z,7.03
2023-09-27T17:16:00.255Z,7.15
2023-09-27T17:18:33.934Z,8.68
2023-09-27T17:21:05.757Z,7.68
2023-09-27T17:23:37.302Z,8.32
2023-09-27T17:26:08.832Z,6.78
2023-09-27T17:28:40.565Z,7.22
2023-09-27T17:31:12.823Z,7.35
2023-09-27T17:33:45.768Z,7.57
2023-09-27T17:36:17.486Z,9.88
2023-09-27T17:38:49.052Z,9.63
2023-09-27T17:41:20.577Z,10.18
2023-09-27T17:43:52.666Z,9.60
2023-09-27T17:46:28.076Z,7.97
2023-09-27T17:49:05.571Z,9.30
2023-09-27T17:51:38.480Z,8.93
2023-09-27T17:54:12.421Z,9.75
2023-09-27T17:56:43.961Z,9.52
2023-09-27T17:59:15.540Z,9.85
2023-09-27T18:01:47.986Z,9.10
2023-09-27T18:04:19.751Z,9.60
2023-09-27T18:06:51.249Z,9.45
2023-09-27T18:09:23.365Z,9.70
2023-09-27T18:11:57.556Z,10.05
2023-09-27T18:14:29.271Z,10.02
2023-09-27T18:17:00.958Z,9.88
2023-09-27T18:19:32.633Z,10.82
2023-09-27T18:22:04.333Z,10.65
2023-09-27T18:24:35.911Z,10.93
2023-09-27T18:27:07.503Z,10.55
2023-09-27T18:29:39.197Z,10.73
2023-09-27T18:32:11.116Z,10.63
2023-09-27T18:34:42.875Z,10.85
2023-09-27T18:37:15.261Z,11.35
2023-09-27T18:39:46.916Z,10.63
2023-09-27T18:42:19.734Z,10.65
2023-09-27T18:44:51.302Z,11.23
2023-09-27T18:47:22.998Z,11.07
2023-09-27T18:49:54.686Z,10.80
2023-09-27T18:52:26.312Z,11.00
2023-09-27T18:54:57.993Z,11.00
2023-09-27T18:57:29.561Z,11.68
2023-09-27T19:00:01.149Z,12.00
2023-09-27T19:02:34.121Z,11.13
2023-09-27T19:05:06.775Z,11.18
2023-09-27T19:07:38.441Z,11.38
2023-09-27T19:10:12.374Z,11.57
2023-09-27T19:12:43.949Z,12.15
2023-09-27T19:15:15.722Z,11.35
2023-09-27T19:17:47.315Z,11.07
2023-09-27T19:20:19.357Z,11.60
2023-09-27T19:22:51.241Z,10.10
2023-09-27T19:25:22.945Z,11.32
2023-09-27T19:27:54.718Z,12.50
2023-09-27T19:30:26.296Z,11.65
2023-09-27T19:32:58.017Z,11.68
2023-09-27T19:35:29.700Z,12.00
2023-09-27T19:38:01.366Z,11.20
2023-09-27T19:40:33.113Z,11.48
2023-09-27T19:43:04.684Z,11.48
2023-09-27T19:45:36.660Z,10.98
2023-09-27T19:48:08.242Z,10.52
2023-09-27T19:50:42.124Z,10.32
2023-09-27T19:53:13.751Z,10.48
2023-09-27T19:55:45.473Z,9.80
2023-09-27T19:58:19.183Z,10.70
2023-09-27T20:00:52.565Z,10.45
2023-09-27T20:03:24.248Z,10.40
2023-09-27T20:05:55.821Z,10.13
2023-09-27T20:08:27.989Z,10.23
2023-09-27T20:10:59.948Z,9.43
2023-09-27T20:13:31.697Z,10.23
2023-09-27T20:16:03.591Z,9.60
2023-09-27T20:18:35.382Z,9.10
2023-09-27T20:21:07.393Z,9.38
2023-09-27T20:23:39.878Z,9.20
2023-09-27T20:26:11.507Z,9.45
2023-09-27T20:28:43.706Z,9.43
2023-09-27T20:31:17.064Z,7.88
2023-09-27T20:33:49.082Z,7.68
2023-09-27T20:36:20.831Z,8.82
2023-09-27T20:38:52.519Z,8.43
2023-09-27T20:41:24.112Z,7.93
2023-09-27T20:43:56.286Z,7.97
2023-09-27T20:46:28.141Z,8.13
2023-09-27T20:49:02.624Z,7.63
2023-09-27T20:51:34.201Z,8.50
2023-09-27T20:54:06.512Z,8.30
2023-09-27T20:56:39.388Z,7.40
2023-09-27T20:59:11.166Z,6.65
2023-09-27T21:01:43.059Z,7.85
2023-09-27T21:04:16.175Z,7.18
2023-09-27T21:06:48.350Z,7.72
2023-09-27T21:09:19.968Z,7.22
2023-09-27T21:11:51.517Z,7.25
2023-09-27T21:14:23.044Z,7.10
2023-09-27T21:16:54.613Z,7.38
2023-09-27T21:19:26.132Z,6.90
2023-09-27T21:21:57.834Z,7.85
2023-09-27T21:24:29.549Z,8.43
2023-09-27T21:27:01.597Z,7.85
2023-09-27T21:29:34.522Z,8.45
2023-09-27T21:32:06.300Z,7.22
2023-09-27T21:34:37.888Z,7.55
2023-09-27T21:37:09.410Z,7.22
2023-09-27T21:39:40.922Z,7.57
2023-09-27T21:42:12.524Z,7.72
2023-09-27T21:44:44.353Z,9.02
2023-09-27T21:47:15.924Z,7.78
2023-09-27T21:49:47.613Z,8.48
2023-09-27T21:52:19.182Z,8.80
2023-09-27T21:54:52.016Z,7.97
2023-09-27T21:57:23.622Z,8.38
2023-09-27T21:59:55.165Z,8.40
2023-09-27T22:02:27.810Z,9.57
2023-09-27T22:05:00.003Z,8.57
2023-09-27T22:07:33.808Z,8.82
2023-09-27T22:10:06.507Z,9.55
2023-09-27T22:12:38.100Z,8.43
2023-09-27T22:15:10.792Z,8.98
2023-09-27T22:17:43.041Z,8.20
2023-09-27T22:20:20.771Z,8.55
2023-09-27T22:22:54.381Z,8.77
2023-09-27T22:25:26.353Z,10.00
2023-09-27T22:27:58.588Z,9.23
2023-09-27T22:30:31.473Z,10.52
2023-09-27T22:33:09.643Z,9.95
2023-09-27T22:35:43.514Z,10.48
2023-09-27T22:38:16.825Z,10.73
2023-09-27T22:40:48.710Z,10.45
2023-09-27T22:43:21.379Z,11.52
2023-09-27T22:45:53.699Z,10.50
2023-09-27T22:48:28.366Z,10.93
2023-09-27T22:51:00.919Z,10.52
2023-09-27T22:53:33.997Z,11.82
2023-09-27T22:56:08.736Z,11.60
2023-09-27T22:58:40.494Z,10.38
2023-09-27T23:01:29.373Z,10.38
2023-09-27T23:04:01.607Z,10.55
2023-09-27T23:06:33.491Z,12.30
2023-09-27T23:09:10.738Z,11.45
2023-09-27T23:11:42.264Z,10.85
2023-09-27T23:14:22.702Z,10.35
2023-09-27T23:17:14.346Z,10.90
2023-09-27T23:19:46.583Z,10.77
2023-09-27T23:22:18.231Z,11.23
2023-09-27T23:25:09.838Z,11.07
2023-09-27T23:27:42.318Z,11.95
2023-09-27T23:30:14.059Z,11.13
2023-09-27T23:32:48.031Z,12.13
2023-09-27T23:35:20.093Z,11.13
2023-09-27T23:38:05.043Z,12.93
2023-09-27T23:40:42.614Z,11.70
2023-09-27T23:43:17.223Z,11.40
2023-09-27T23:45:49.441Z,12.25
2023-09-27T23:48:21.797Z,13.05
2023-09-27T23:50:55.727Z,11.93
2023-09-27T23:53:27.483Z,13.32
2023-09-27T23:56:00.842Z,12.80
2023-09-27T23:58:33.750Z,13.18
